MST,Max TemperatureF,Mean TemperatureF,Min TemperatureF,Max Dew PointF,MeanDew PointF,Min DewpointF,Max Humidity, Mean Humidity, Min Humidity, Max Sea Level PressureIn, Mean Sea Level PressureIn, Min Sea Level PressureIn, Max VisibilityMiles, Mean VisibilityMiles, Min VisibilityMiles, Max Wind SpeedMPH, Mean Wind SpeedMPH, Max Gust SpeedMPH,PrecipitationIn, CloudCover, Events, WindDirDegrees
2012-12-1,68,57,46,41,36,30,71,48,24,30.22,30.17,30.12,10,10,10,9,3,,0.00,0,,107
2012-12-2,66,55,44,37,36,34,66,50,32,30.19,30.13,30.09,10,10,10,12,6,17,0.00,0,,148
2012-12-3,64,57,50,43,40,36,67,58,42,30.28,30.18,30.10,10,10,10,12,4,,0.00,2,,107
2012-12-4,69,58,48,36,32,23,62,39,25,30.37,30.31,30.26,10,10,10,16,10,20,0.00,0,,50
2012-12-5,71,61,51,28,26,23,35,27,18,30.30,30.18,30.09,10,10,10,14,7,17,0.00,0,,98
2012-12-6,64,57,50,32,30,27,50,36,27,30.08,30.00,29.93,10,10,10,10,3,,0.00,1,,100
2012-12-7,64,55,46,34,32,27,62,46,27,30.04,29.99,29.96,10,10,10,13,6,,0.00,0,,68
2012-12-8,60,51,42,32,30,23,61,47,23,30.04,29.99,29.95,10,10,10,12,6,,0.00,0,,84
2012-12-9,57,46,35,32,22,9,70,42,19,30.21,30.06,29.99,10,10,10,21,7,33,0.00,0,,31
2012-12-10,53,42,32,18,9,5,34,27,16,30.23,30.15,30.07,10,10,10,15,8,24,0.00,0,,55
2012-12-11,55,45,35,18,17,14,44,32,23,30.15,30.08,30.03,10,10,10,12,5,17,0.00,0,,70
2012-12-12,59,49,39,18,14,10,39,27,17,30.09,30.02,29.97,10,10,10,12,5,17,0.00,0,,139
2012-12-13,57,50,44,43,24,12,93,39,22,29.98,29.91,29.73,10,10,7,23,7,34,0.07,3,Rain,166
2012-12-14,44,40,37,43,35,32,100,85,70,29.99,29.82,29.65,10,9,3,22,11,33,0.76,8,Rain,175
2012-12-15,37,35,33,37,34,32,100,97,87,29.97,29.93,29.89,10,5,0,17,5,23,0.90,7,Fog-Rain-Snow,185
2012-12-16,42,37,32,34,32,32,100,85,66,30.16,30.07,29.97,10,9,0,7,2,,0.00,7,Fog-Snow,132
2012-12-17,44,40,37,37,35,32,93,82,70,30.18,30.11,30.04,10,10,10,7,0,,0.00,8,,38
2012-12-18,50,44,37,41,38,36,100,81,66,30.02,29.85,29.66,10,10,5,22,5,30,0.12,8,Rain,193
2012-12-19,44,38,32,36,19,9,100,57,27,30.32,30.02,29.68,10,10,4,25,11,31,0.00,3,Rain-Snow,6
2012-12-20,51,40,30,21,13,5,42,35,28,30.37,30.31,30.25,10,10,10,18,12,26,0.00,0,,72
2012-12-21,55,45,35,21,15,9,37,31,22,30.26,30.19,30.14,10,10,10,20,13,25,0.00,0,,59
2012-12-22,60,51,42,28,25,19,53,40,25,30.19,30.14,30.10,10,10,10,14,7,,0.00,0,,111
2012-12-23,55,47,39,30,25,16,65,46,22,30.18,30.12,30.06,10,10,10,13,5,,0.00,1,,122
2012-12-24,46,42,37,37,29,21,81,62,43,30.07,29.96,29.85,10,10,7,16,4,25,0.00,4,Rain-Thunderstorm,275
2012-12-25,44,36,28,21,15,9,64,45,31,30.15,30.05,29.97,10,10,10,13,6,25,0.00,0,,28
2012-12-26,46,40,33,32,20,10,87,51,35,30.01,29.89,29.78,10,10,7,17,6,26,0.00,5,Snow,105
2012-12-27,44,38,32,32,30,27,100,81,53,30.00,29.88,29.82,10,10,5,13,3,20,0.00,5,,342
2012-12-28,44,36,28,27,19,10,80,53,38,30.16,30.09,30.00,10,10,10,17,7,24,0.00,0,,60
2012-12-29,48,40,32,21,16,9,52,39,32,30.15,30.06,29.97,10,10,10,16,10,22,0.00,0,,96
2012-12-30,46,40,33,34,26,21,100,63,39,29.90,29.85,29.79,10,8,0,12,4,18,0.04,5,Snow,177
2012-12-31,37,34,32,34,32,30,100,95,81,30.15,30.02,29.87,10,8,0,7,2,,0.02,7,Fog-Snow,219